Latest Coastal Weather Observations for Norfolk Island

IDN60701

Issued at 3:51 am EST Tuesday 28 June 2022 (issued every 10 minutes, with the page automatically refreshed every 10 minutes)

About coastal observations | Map of coastal stations | Coastal observations for NSW | Marine services | Other Formats
Station Details ID: 200288 Name: NORFOLK ISLAND AERO Lat: -29.04 Lon: 167.94 Height: 111.73 m
Data from the previous 72 hours. | See also: Recent months at Norfolk Island

Observations are collected in the New South Wales time zone (Eastern Standard Time) which includes daylight savings in the summer period. Therefore 'Rain since 9am' totals and other values are based on the New South Wales time zone, which may differ from local time.

Date/Time
EST
Wind Sea
Height
m
Swell Vis
km
Cloud Weather Temp
°C
Press
MSL
hPa
Rain since
9am
mm
Dir  Spd
kts
Gust
kts
Height
m
Period
s
Dir
28/03:30am SE 5 8 - - - - 10 - - 16.4 1015.7 0.4
28/03:00am SSE 5 6 - - - - 10 - - 16.8 1016.4 0.0
28/02:30am NNE 9 13 - - - - 10 - - 18.1 1016.7 0.0
28/02:00am NNE 10 15 - - - - 10 - - 18.0 1016.4 0.0
28/01:30am NNE 9 14 - - - - 10 - - 18.0 1016.8 0.0
28/01:00am NNE 11 16 - - - - 10 - - 18.0 1017.4 0.0
28/12:30am NNE 11 17 - - - - 10 - - 18.0 1018.5 0.0
28/12:00am NNE 10 16 - - - - 10 - - 18.0 1018.5 0.0
 
Date/Time
EST
Wind Sea
Height
m
Swell Vis
km
Cloud Weather Temp
°C
Press
MSL
hPa
Rain since
9am
mm
Dir  Spd
kts
Gust
kts
Height
m
Period
s
Dir
27/11:30pm NNE 10 15 - - - - 10 - - 18.0 1018.7 0.0
27/11:00pm NNE 8 15 - - - - 10 - - 17.9 1019.2 0.0
27/10:30pm NNE 9 14 - - - - 10 - - 17.8 1019.3 0.0
27/10:00pm NE 12 18 - - - - 10 - - 17.8 1018.8 0.0
27/09:30pm NE 7 10 - - - - 10 - - 16.9 1019.1 0.0
27/09:00pm NNE 4 6 - - - - 10 - - 16.2 1020.1 0.0
27/08:30pm ENE 2 4 - - - - 10 - - 16.3 1020.4 0.0
27/08:00pm NE 5 6 - - - - 10 - - 16.5 1020.0 0.0
27/07:30pm ENE 9 11 - - - - 10 - - 16.4 1020.3 0.0
27/07:00pm ENE 6 11 - - - - 10 - - 16.4 1020.6 0.0
27/06:30pm ENE 5 6 - - - - 10 - - 15.2 1020.2 0.0
27/06:00pm NE 4 6 - - - - 10 - - 15.5 1020.7 0.0
27/05:30pm NE 4 4 - - - - 10 - - 15.1 1020.9 0.0
27/05:00pm CALM 0 3 - - - - 10 - Recent precip. 15.5 1020.7 0.0
27/04:30pm NE 1 4 - - - - 10 - - 16.0 1020.4 0.0
27/04:00pm NE 1 4 - - - - 10 - - 16.7 1020.6 0.0
27/03:30pm NE 4 5 - - - - 10 - - 17.4 1020.6 0.0
27/03:00pm NE 6 9 - - - - 10 - - 18.0 1020.6 0.0
27/02:30pm NE 6 8 - - - - 10 Mostly clear - 18.2 1020.9 0.0
27/02:00pm NE 6 9 - - - - 10 Mostly clear - 18.6 1020.9 0.0
27/01:30pm NE 6 8 - - - - 10 Mostly clear - 19.2 1021.4 0.0
27/01:00pm SSE 3 6 - - - - 10 Mostly clear - 20.1 1021.7 0.0
27/12:30pm SW 5 8 - - - - 10 Mostly clear - 19.2 1021.9 0.0
27/12:00pm ESE 5 8 - - - - 10 Mostly clear - 19.2 1022.3 0.0
27/11:30am ENE 6 8 - - - - 10 Mostly clear - 19.9 1022.6 0.0
27/11:00am NE 7 9 - - - - 10 Mostly clear - 19.5 1023.3 0.0
27/10:30am NE 7 10 - - - - 10 Mostly clear - 19.2 1023.4 0.0
27/10:00am NNE 6 9 - - - - 10 Partly cloudy - 20.2 1023.9 0.0
27/09:30am NE 7 11 - - - - 10 Partly cloudy - 19.3 1024.2 0.0
27/09:00am NE 7 10 - - - - 10 Partly cloudy - 19.1 1024.3 0.0
27/08:30am ENE 5 9 - - - - 10 Partly cloudy - 19.3 1024.6 0.0
27/08:00am E 2 5 - - - - 10 Partly cloudy - 17.9 1024.7 0.0
27/07:30am CALM 0 0 - - - - 10 Partly cloudy - 17.3 1024.6 0.0
27/07:00am SSE 3 4 - - - - 10 - - 15.6 1024.6 0.0
27/06:30am SSE 1 3 - - - - 10 - - 14.3 1025.0 0.0
27/06:00am CALM 0 0 - - - - 10 - - 14.9 1024.4 0.0
27/05:30am CALM 0 0 - - - - 10 - - 14.8 1024.3 0.0
27/05:00am CALM 0 0 - - - - 10 - - 14.6 1023.9 0.0
27/04:30am CALM 0 0 - - - - 10 - - 15.0 1023.9 0.0
27/04:00am CALM 0 0 - - - - 10 - - 15.5 1024.0 0.0
27/03:30am CALM 0 0 - - - - 10 - - 15.0 1024.0 0.0
27/03:00am CALM 0 0 - - - - 10 - - 14.9 1024.0 0.0
27/02:30am S 4 5 - - - - 10 - - 15.0 1024.2 0.0
27/02:00am CALM 0 0 - - - - 10 - - 15.1 1024.4 0.0
27/01:30am CALM 0 0 - - - - 10 - - 15.0 1024.4 0.0
27/01:00am CALM 0 0 - - - - 10 - - 14.5 1024.7 0.0
27/12:30am S 4 5 - - - - 10 - - 15.3 1024.9 0.0
27/12:00am CALM 0 0 - - - - 10 - - 15.0 1025.1 0.0
 
Date/Time
EST
Wind Sea
Height
m
Swell Vis
km
Cloud Weather Temp
°C
Press
MSL
hPa
Rain since
9am
mm
Dir  Spd
kts
Gust
kts
Height
m
Period
s
Dir
26/11:30pm CALM 0 2 - - - - 10 - - 15.0 1025.2 0.0
26/11:00pm S 5 5 - - - - 10 - - 15.6 1025.3 0.0
26/10:30pm CALM 0 0 - - - - 10 - - 14.8 1025.5 0.0
26/10:00pm CALM 0 0 - - - - 10 - - 15.1 1025.5 0.0
26/09:30pm CALM 0 0 - - - - 10 - - 15.4 1025.5 0.0
26/09:00pm SSW 3 4 - - - - 10 - - 15.5 1025.5 0.0
26/08:30pm CALM 0 0 - - - - 10 - - 14.8 1025.4 0.0
26/08:00pm SSW 4 4 - - - - 10 - - 15.3 1025.4 0.0
26/07:30pm S 3 4 - - - - 10 - - 15.1 1025.4 0.0
26/07:00pm SSE 3 4 - - - - 10 - - 15.6 1025.3 0.0
26/06:30pm CALM 0 0 - - - - 10 - - 15.4 1025.2 0.0
26/06:00pm SSE 3 4 - - - - 10 - - 15.6 1025.0 0.0
26/05:30pm SSE 4 4 - - - - 10 - - 15.7 1024.8 0.0
26/05:00pm SSE 1 4 - - - - 10 - - 16.0 1024.7 0.0
26/04:30pm SSE 4 5 - - - - 10 - - 16.4 1024.4 0.0
26/04:00pm S 4 5 - - - - 10 - - 17.0 1024.2 0.0
26/03:30pm S 5 6 - - - - 10 - - 17.8 1024.2 0.0
26/03:00pm S 6 8 - - - - 10 - - 18.4 1024.0 0.0
26/02:30pm S 7 9 - - - - 10 - - 18.7 1024.0 0.0
26/02:00pm S 7 10 - - - - 10 - - 19.0 1024.1 0.0
26/01:30pm S 8 11 - - - - 10 - - 18.9 1024.0 0.0
26/01:00pm S 8 10 - - - - 10 - - 18.8 1024.0 0.0
26/12:30pm S 8 10 - - - - 10 - - 19.2 1024.0 0.0
26/12:00pm S 9 11 - - - - 10 - - 19.3 1024.3 0.0
26/11:30am S 8 10 - - - - 10 - - 18.8 1024.7 0.0
26/11:00am S 7 10 - - - - 10 - - 19.1 1025.1 0.0
26/10:30am SSE 9 13 - - - - 10 - - 18.9 1025.5 0.0
26/10:00am SSE 8 15 - - - - 10 - - 18.4 1025.9 0.0
26/09:30am S 8 11 - - - - 10 - - 19.1 1026.1 0.0
26/09:00am S 6 8 - - - - 10 - - 18.7 1026.3 0.0
26/08:30am S 7 9 - - - - 10 - - 18.5 1026.3 0.0
26/08:00am S 6 9 - - - - 10 - - 18.5 1026.0 0.2
26/07:30am S 6 7 - - - - 10 - - 18.0 1025.9 0.2
26/07:00am S 4 6 - - - - 10 - - 17.3 1025.8 0.2
26/06:30am S 4 5 - - - - 10 - - 15.6 1025.6 0.2
26/06:00am S 4 6 - - - - 10 - - 14.5 1025.4 0.2
26/05:30am S 4 6 - - - - 10 - - 15.0 1025.0 0.2
26/05:00am S 4 6 - - - - 10 - - 15.6 1024.6 0.2
26/04:30am S 4 5 - - - - 10 - - 15.1 1024.4 0.2
26/04:00am SSW 5 7 - - - - 10 - - 15.0 1024.1 0.2
26/03:30am SW 5 7 - - - - 10 - - 15.2 1023.9 0.2
26/03:00am S 3 5 - - - - 10 - - 14.8 1023.9 0.2
26/02:30am CALM 0 0 - - - - 10 - - 14.8 1023.9 0.2
26/02:00am CALM 0 0 - - - - 10 - - 14.9 1024.1 0.2
26/01:30am CALM 0 0 - - - - 10 - - 14.7 1024.0 0.2
26/01:00am CALM 0 0 - - - - 10 - - 14.8 1024.2 0.2
26/12:30am CALM 0 0 - - - - 10 - - 14.4 1024.2 0.2
26/12:00am CALM 0 0 - - - - 10 - - 14.5 1024.1 0.2
 
Date/Time
EST
Wind Sea
Height
m
Swell Vis
km
Cloud Weather Temp
°C
Press
MSL
hPa
Rain since
9am
mm
Dir  Spd
kts
Gust
kts
Height
m
Period
s
Dir
25/11:30pm CALM 0 0 - - - - 10 - - 14.5 1024.1 0.2
25/11:00pm CALM 0 0 - - - - 10 - - 14.9 1024.2 0.2
25/10:30pm CALM 0 0 - - - - 10 - - 15.4 1024.3 0.2
25/10:00pm CALM 0 0 - - - - 10 - - 15.1 1024.4 0.2
25/09:30pm CALM 0 0 - - - - 10 - - 15.1 1024.4 0.2
25/09:00pm S 4 5 - - - - 10 - - 15.2 1024.3 0.2
25/08:30pm CALM 0 0 - - - - 10 - - 14.8 1024.5 0.2
25/08:00pm CALM 0 0 - - - - 10 - - 15.5 1024.4 0.2
25/07:30pm CALM 0 0 - - - - 10 - - 15.3 1024.4 0.2
25/07:00pm CALM 0 0 - - - - 10 - - 14.6 1024.4 0.2
25/06:30pm CALM 0 0 - - - - 10 - - 15.0 1024.2 0.2
25/06:00pm S 1 4 - - - - 10 - - 15.4 1023.8 0.2
25/05:30pm CALM 0 0 - - - - 10 - - 15.1 1023.6 0.2
25/05:00pm CALM 0 0 - - - - 10 - - 15.7 1023.4 0.2
25/04:30pm S 1 3 - - - - 10 - - 16.0 1023.2 0.2
25/04:00pm S 4 5 - - - - 10 - - 16.8 1022.8 0.2
25/03:30pm S 5 7 - - - - 10 - - 17.9 1022.5 0.2
25/03:00pm S 5 6 - - - - 10 - - 18.3 1022.5 0.2
25/02:30pm SSE 6 8 - - - - 10 - - 18.8 1022.3 0.2
25/02:00pm SSW 7 9 - - - - 10 - - 18.9 1022.2 0.2
25/01:30pm SSW 6 8 - - - - 10 - - 19.1 1022.2 0.2
25/01:00pm SSW 7 9 - - - - 10 - - 19.0 1022.0 0.2
25/12:30pm SSW 6 10 - - - - 10 - - 19.0 1021.9 0.2
25/12:00pm SW 7 9 - - - - 10 - - 18.8 1022.1 0.2
25/11:30am SW 7 10 - - - - 10 - - 18.7 1022.5 0.2
25/11:00am S 6 10 - - - - 10 - - 19.2 1022.9 0.0
25/10:30am SSW 6 8 - - - - 10 - - 18.5 1023.0 0.0
25/10:00am SW 6 8 - - - - 10 - - 18.9 1023.2 0.0
25/09:30am SW 6 7 - - - - 10 - - 18.6 1023.3 0.0
25/09:00am SW 6 8 - - - - 10 - - 18.5 1023.6 0.0
25/08:30am SSW 4 7 - - - - 10 - - 18.3 1023.6 0.0
25/08:00am SW 5 7 - - - - 10 - - 18.0 1023.4 0.0
25/07:30am CALM 0 0 - - - - 10 - - 18.0 1023.3 0.0
25/07:00am CALM 0 0 - - - - 10 - - 17.2 1023.1 0.0
25/06:30am CALM 0 0 - - - - 10 - - 15.7 1022.8 0.0
25/06:00am CALM 0 0 - - - - 10 - - 14.4 1022.4 0.0
25/05:30am CALM 0 0 - - - - 10 - - 14.5 1022.2 0.0
25/05:00am CALM 0 0 - - - - 10 - - 14.5 1022.0 0.0
25/04:30am CALM 0 0 - - - - 10 - - 14.1 1021.7 0.0
25/04:00am CALM 0 0 - - - - 10 - - 14.0 1021.4 0.0
25/03:30am CALM 0 0 - - - - 10 - - 14.3 1021.3 0.0
25/03:00am CALM 0 0 - - - - 10 - - 14.1 1021.3 0.0
25/02:30am CALM 0 0 - - - - 10 - - 14.5 1021.5 0.0

Other formats

Comma delimited format used in spreadsheet applications
http://www.bom.gov.au/fwo/IDN60701/IDN60701.94996.axf

JavaScript Object Notation format (JSON) in row-major order
http://www.bom.gov.au/fwo/IDN60701/IDN60701.94996.json

Data quality

Most of these data are generated automatically and are frequently updated. Quality checks on data are not normally performed. It is possible for incorrect values to appear. Refer to information at About Latest Weather Observations and please check the disclaimer before using these data.